createdAt,value
2023-05-23T00:02:18.150Z,9.07
2023-05-23T00:04:45.509Z,8.73
2023-05-23T00:07:12.480Z,9.97
2023-05-23T00:09:39.422Z,9.27
2023-05-23T00:12:07.003Z,9.03
2023-05-23T00:14:35.351Z,8.63
2023-05-23T00:17:02.584Z,8.13
2023-05-23T00:19:30.927Z,7.87
2023-05-23T00:21:58.578Z,8.60
2023-05-23T00:24:25.844Z,8.10
2023-05-23T00:26:52.830Z,7.83
2023-05-23T00:29:19.954Z,7.57
2023-05-23T00:31:47.329Z,8.07
2023-05-23T00:34:15.566Z,7.47
2023-05-23T00:36:44.344Z,7.07
2023-05-23T00:39:19.370Z,6.33
2023-05-23T00:41:51.115Z,5.97
2023-05-23T00:44:20.216Z,6.17
2023-05-23T00:46:53.476Z,5.87
2023-05-23T00:49:21.304Z,5.40
2023-05-23T00:51:50.617Z,5.87
2023-05-23T00:54:24.599Z,4.87
2023-05-23T00:56:51.768Z,5.60
2023-05-23T00:59:21.187Z,5.87
2023-05-23T01:01:51.232Z,5.87
2023-05-23T01:04:21.084Z,5.43
2023-05-23T01:06:49.554Z,5.80
2023-05-23T01:09:18.754Z,5.33
2023-05-23T01:11:57.637Z,5.97
2023-05-23T01:14:35.945Z,5.80
2023-05-23T01:17:13.562Z,5.20
2023-05-23T01:20:00.387Z,5.80
2023-05-23T01:23:12.692Z,6.13
2023-05-23T01:26:03.346Z,4.73
2023-05-23T01:28:37.843Z,6.20
2023-05-23T01:31:10.130Z,5.50
2023-05-23T01:33:40.124Z,6.17
2023-05-23T01:36:09.025Z,6.27
2023-05-23T01:38:36.012Z,6.07
2023-05-23T01:41:02.994Z,6.07
2023-05-23T01:43:31.498Z,5.37
2023-05-23T01:46:01.518Z,6.03
2023-05-23T01:48:30.782Z,6.67
2023-05-23T01:50:58.929Z,6.47
2023-05-23T01:53:27.376Z,6.57
2023-05-23T01:55:55.705Z,6.43
2023-05-23T01:58:22.736Z,6.83
2023-05-23T02:00:51.098Z,6.53
2023-05-23T02:03:18.695Z,6.30
2023-05-23T02:05:45.745Z,7.03
2023-05-23T02:08:12.698Z,6.80
2023-05-23T02:10:39.727Z,7.73
2023-05-23T02:13:06.682Z,7.87
2023-05-23T02:15:33.638Z,7.43
2023-05-23T02:18:03.229Z,8.23
2023-05-23T02:20:30.284Z,9.40
2023-05-23T02:22:57.225Z,8.27
2023-05-23T02:25:24.138Z,9.07
2023-05-23T02:27:51.057Z,10.87
2023-05-23T02:30:18.018Z,10.03
2023-05-23T02:32:45.097Z,11.70
2023-05-23T02:35:13.770Z,10.30
2023-05-23T02:37:40.772Z,9.73
2023-05-23T02:40:09.232Z,11.80
2023-05-23T02:42:36.542Z,11.83
2023-05-23T02:45:04.115Z,12.60
2023-05-23T02:47:31.146Z,13.97
2023-05-23T02:49:58.047Z,13.07
2023-05-23T02:52:26.744Z,12.83
2023-05-23T02:54:53.724Z,14.50
2023-05-23T02:57:20.723Z,13.20
2023-05-23T02:59:47.670Z,12.47
2023-05-23T03:02:14.730Z,15.03
2023-05-23T03:04:41.880Z,14.30
2023-05-23T03:07:20.400Z,16.13
2023-05-23T03:09:56.158Z,16.33
2023-05-23T03:12:23.264Z,16.50
2023-05-23T03:14:50.339Z,17.07
2023-05-23T03:17:17.384Z,15.57
2023-05-23T03:19:44.443Z,16.17
2023-05-23T03:22:11.480Z,16.13
2023-05-23T03:24:38.493Z,18.17
2023-05-23T03:27:06.971Z,18.20
2023-05-23T03:29:34.065Z,17.00
2023-05-23T03:32:01.134Z,20.27
2023-05-23T03:34:28.202Z,17.97
2023-05-23T03:36:55.287Z,20.40
2023-05-23T03:39:23.397Z,20.20
2023-05-23T03:41:51.257Z,21.40
2023-05-23T03:44:19.834Z,21.03
2023-05-23T03:46:46.919Z,21.50
2023-05-23T03:49:14.072Z,19.80
2023-05-23T03:51:41.184Z,21.53
2023-05-23T03:54:08.269Z,19.03
2023-05-23T03:56:35.374Z,19.77
2023-05-23T03:59:02.381Z,18.70
2023-05-23T04:01:30.797Z,18.90
2023-05-23T04:03:58.110Z,22.03
2023-05-23T04:06:25.511Z,18.83
2023-05-23T04:08:52.567Z,18.97
2023-05-23T04:11:19.635Z,20.37
2023-05-23T04:13:47.177Z,19.97
2023-05-23T04:16:14.339Z,18.20
2023-05-23T04:18:43.518Z,17.03
2023-05-23T04:21:10.739Z,17.47
2023-05-23T04:23:38.406Z,17.50
2023-05-23T04:26:05.802Z,14.20
2023-05-23T04:28:34.227Z,15.13
2023-05-23T04:31:02.684Z,12.20
2023-05-23T04:33:30.618Z,12.80
2023-05-23T04:35:58.906Z,12.37
2023-05-23T04:38:25.850Z,12.60
2023-05-23T04:40:54.040Z,11.13
2023-05-23T04:43:21.815Z,12.87
2023-05-23T04:45:54.248Z,12.80
2023-05-23T04:48:24.025Z,11.30
2023-05-23T04:50:52.500Z,10.90
2023-05-23T04:53:20.827Z,11.37
2023-05-23T04:55:48.185Z,11.33
2023-05-23T04:58:15.426Z,11.57
2023-05-23T05:00:42.541Z,11.77
2023-05-23T05:03:09.817Z,10.17
2023-05-23T05:05:37.225Z,10.87
2023-05-23T05:08:04.326Z,9.80
2023-05-23T05:10:32.661Z,9.57
2023-05-23T05:12:59.563Z,9.03
2023-05-23T05:15:26.459Z,9.43
2023-05-23T05:17:53.711Z,9.97
2023-05-23T05:20:21.740Z,9.10
2023-05-23T05:22:57.486Z,8.97
2023-05-23T05:25:24.894Z,9.60
2023-05-23T05:27:53.538Z,9.90
2023-05-23T05:30:20.626Z,10.20
2023-05-23T05:32:47.756Z,9.80
2023-05-23T05:35:14.853Z,8.77
2023-05-23T05:37:41.876Z,9.70
2023-05-23T05:40:09.941Z,9.80
2023-05-23T05:42:36.948Z,9.63
2023-05-23T05:45:07.102Z,9.63
2023-05-23T05:47:34.047Z,11.13
2023-05-23T05:50:01.676Z,9.87
2023-05-23T05:52:28.614Z,8.97
2023-05-23T05:54:57.645Z,9.63
2023-05-23T05:57:24.719Z,9.30
2023-05-23T05:59:52.375Z,9.03
2023-05-23T06:02:20.924Z,9.73
2023-05-23T06:04:47.951Z,7.97
2023-05-23T06:07:14.879Z,8.73
2023-05-23T06:09:42.035Z,8.80
2023-05-23T06:12:09.064Z,10.13
2023-05-23T06:14:36.044Z,8.70
2023-05-23T06:17:03.750Z,7.80
2023-05-23T06:19:32.124Z,7.60
2023-05-23T06:21:59.119Z,6.23
2023-05-23T06:24:26.023Z,7.90
2023-05-23T06:26:53.036Z,6.60
2023-05-23T06:29:20.031Z,6.60
2023-05-23T06:31:47.130Z,6.70
2023-05-23T06:34:14.060Z,6.30
2023-05-23T06:36:42.937Z,5.83
2023-05-23T06:39:10.057Z,6.20
2023-05-23T06:41:37.040Z,5.33
2023-05-23T06:44:04.057Z,6.47
2023-05-23T06:46:31.490Z,6.80
2023-05-23T06:49:06.938Z,7.03
2023-05-23T06:51:42.379Z,6.90
2023-05-23T06:54:10.368Z,6.20
2023-05-23T06:56:37.262Z,5.70
2023-05-23T06:59:04.209Z,5.03
2023-05-23T07:01:31.239Z,5.40
2023-05-23T07:03:58.251Z,5.87
2023-05-23T07:06:27.413Z,5.63
2023-05-23T07:08:55.752Z,4.67
2023-05-23T07:11:23.044Z,5.23
2023-05-23T07:13:50.159Z,5.57
2023-05-23T07:16:17.219Z,4.93
2023-05-23T07:18:44.205Z,5.23
2023-05-23T07:21:11.222Z,4.20
2023-05-23T07:23:38.260Z,4.83
2023-05-23T07:26:09.566Z,4.10
2023-05-23T07:28:37.491Z,4.53
2023-05-23T07:31:04.894Z,4.83
2023-05-23T07:33:34.465Z,5.03
2023-05-23T07:36:01.592Z,4.57
2023-05-23T07:38:28.651Z,4.27
2023-05-23T07:41:09.906Z,4.13
2023-05-23T07:43:39.730Z,4.50
2023-05-23T07:46:07.134Z,4.03
2023-05-23T07:48:34.072Z,4.80
2023-05-23T07:51:01.071Z,4.60
2023-05-23T07:53:28.033Z,4.53
2023-05-23T07:55:54.967Z,4.83
2023-05-23T07:58:23.077Z,5.23
2023-05-23T08:00:52.938Z,4.80
2023-05-23T08:03:20.626Z,5.13
2023-05-23T08:05:47.806Z,4.43
2023-05-23T08:08:15.632Z,4.40
2023-05-23T08:11:01.880Z,3.10
2023-05-23T08:13:45.469Z,3.13
2023-05-23T08:16:15.189Z,2.77
2023-05-23T08:18:43.465Z,3.93
2023-05-23T08:21:11.363Z,4.13
2023-05-23T08:23:39.428Z,3.83
2023-05-23T08:26:07.616Z,3.97
2023-05-23T08:28:35.892Z,3.80
2023-05-23T08:31:04.060Z,4.87
2023-05-23T08:33:33.591Z,4.47
2023-05-23T08:36:01.176Z,5.23
2023-05-23T08:38:28.618Z,5.07
2023-05-23T08:41:16.861Z,5.10
2023-05-23T08:44:03.098Z,4.40
2023-05-23T08:46:33.987Z,3.90
2023-05-23T08:49:03.664Z,4.57
2023-05-23T08:51:43.964Z,4.40
2023-05-23T08:54:15.220Z,4.83
2023-05-23T08:56:49.797Z,7.73
2023-05-23T08:59:24.523Z,4.77
2023-05-23T09:01:56.869Z,5.43
2023-05-23T09:04:25.171Z,4.97
2023-05-23T09:06:52.314Z,4.67
2023-05-23T09:09:19.549Z,5.17
2023-05-23T09:11:47.177Z,5.53
2023-05-23T09:14:14.689Z,5.50
2023-05-23T09:16:47.672Z,4.33
2023-05-23T09:19:15.858Z,5.77
2023-05-23T09:21:45.409Z,5.50
2023-05-23T09:24:12.868Z,5.30
2023-05-23T09:26:39.846Z,5.30
2023-05-23T09:29:07.593Z,5.67
2023-05-23T09:31:34.619Z,5.77
2023-05-23T09:34:02.177Z,5.10
2023-05-23T09:36:32.478Z,4.57
2023-05-23T09:39:04.500Z,5.60
2023-05-23T09:41:33.252Z,4.40
2023-05-23T09:44:06.431Z,4.10
2023-05-23T09:46:37.449Z,3.50
2023-05-23T09:49:17.414Z,4.20
2023-05-23T09:51:57.285Z,3.60
2023-05-23T09:54:25.934Z,4.50
2023-05-23T09:56:56.161Z,4.60
2023-05-23T09:59:26.386Z,4.17
2023-05-23T10:01:57.465Z,4.83
2023-05-23T10:04:31.427Z,3.77
2023-05-23T10:07:07.875Z,4.10
2023-05-23T10:09:39.895Z,3.47
2023-05-23T10:12:45.900Z,4.80
2023-05-23T10:15:17.180Z,4.50
2023-05-23T10:18:06.374Z,4.27
2023-05-23T10:20:35.955Z,4.33
2023-05-23T10:23:05.425Z,4.67
2023-05-23T10:25:36.922Z,4.23
2023-05-23T10:28:05.459Z,4.60
2023-05-23T10:30:34.168Z,5.10
2023-05-23T10:33:03.278Z,4.23
2023-05-23T10:35:48.001Z,4.80
2023-05-23T10:38:32.828Z,4.20
2023-05-23T10:41:11.718Z,4.23
2023-05-23T10:43:48.907Z,4.40
2023-05-23T10:46:16.263Z,4.33
2023-05-23T10:48:45.261Z,5.73
2023-05-23T10:51:14.644Z,3.93
2023-05-23T10:53:43.998Z,5.10
2023-05-23T10:56:23.436Z,4.60
2023-05-23T10:58:53.989Z,4.70
2023-05-23T11:01:21.384Z,5.13
2023-05-23T11:03:55.188Z,4.03
2023-05-23T11:06:38.472Z,5.60
2023-05-23T11:09:10.888Z,4.77
2023-05-23T11:12:03.488Z,4.70
2023-05-23T11:14:54.875Z,8.30
2023-05-23T11:17:33.374Z,4.43
2023-05-23T11:20:07.686Z,6.13
2023-05-23T11:22:36.306Z,5.33
2023-05-23T11:25:08.902Z,5.80
2023-05-23T11:27:39.333Z,6.10
2023-05-23T11:30:09.912Z,5.27
2023-05-23T11:32:37.652Z,4.60
2023-05-23T11:35:08.117Z,5.33
2023-05-23T11:37:37.712Z,5.80
2023-05-23T11:40:27.805Z,5.17
2023-05-23T11:42:56.863Z,4.87
2023-05-23T11:45:24.698Z,4.70
2023-05-23T11:47:52.358Z,7.43
2023-05-23T11:50:22.722Z,6.53
2023-05-23T11:52:53.298Z,5.27
2023-05-23T11:55:21.597Z,5.03
2023-05-23T11:57:49.306Z,4.20
2023-05-23T12:00:19.465Z,4.77
2023-05-23T12:02:48.807Z,4.40
2023-05-23T12:05:16.305Z,4.83
2023-05-23T12:07:45.116Z,5.77
2023-05-23T12:10:12.947Z,6.00
2023-05-23T12:12:42.665Z,5.00
2023-05-23T12:15:11.759Z,4.53
2023-05-23T12:17:46.064Z,5.47
2023-05-23T12:20:14.103Z,4.50
2023-05-23T12:22:42.043Z,4.57
2023-05-23T12:25:12.640Z,4.20
2023-05-23T12:27:43.804Z,4.50
2023-05-23T12:30:14.686Z,4.47
2023-05-23T12:32:46.513Z,4.63
2023-05-23T12:35:15.865Z,4.53
2023-05-23T12:37:45.910Z,4.97
2023-05-23T12:40:15.802Z,6.73
2023-05-23T12:42:51.370Z,4.73
2023-05-23T12:45:18.595Z,4.20
2023-05-23T12:47:46.884Z,4.60
2023-05-23T12:50:13.917Z,4.47
2023-05-23T12:52:41.408Z,4.60
2023-05-23T12:55:09.688Z,4.70
2023-05-23T12:57:37.075Z,3.77
2023-05-23T13:00:05.491Z,3.53
2023-05-23T13:02:33.545Z,3.57
2023-05-23T13:05:01.866Z,3.37
2023-05-23T13:07:29.367Z,3.80
2023-05-23T13:09:56.975Z,3.30
2023-05-23T13:12:24.675Z,4.07
2023-05-23T13:14:52.328Z,3.63
2023-05-23T13:17:19.270Z,3.80
2023-05-23T13:19:47.082Z,4.63
2023-05-23T13:22:15.367Z,4.27
2023-05-23T13:24:43.578Z,5.63
2023-05-23T13:27:10.710Z,4.80
2023-05-23T13:29:37.713Z,4.67
2023-05-23T13:32:05.379Z,5.27
2023-05-23T13:34:32.431Z,4.90
2023-05-23T13:36:59.330Z,4.53
2023-05-23T13:39:27.705Z,4.87
2023-05-23T13:41:54.841Z,5.40
2023-05-23T13:44:21.849Z,5.43
2023-05-23T13:46:48.776Z,4.80
2023-05-23T13:49:16.090Z,4.93
2023-05-23T13:51:44.236Z,4.77
2023-05-23T13:54:11.685Z,3.83
2023-05-23T13:56:40.341Z,3.83
2023-05-23T13:59:07.355Z,3.77
2023-05-23T14:01:34.368Z,3.80
2023-05-23T14:04:01.410Z,4.27
2023-05-23T14:06:28.320Z,4.43
2023-05-23T14:08:56.225Z,3.63
2023-05-23T14:11:23.139Z,4.47
2023-05-23T14:13:51.414Z,5.33
2023-05-23T14:16:18.448Z,3.90
2023-05-23T14:18:45.430Z,4.20
2023-05-23T14:21:12.359Z,4.77
2023-05-23T14:23:39.297Z,3.70
2023-05-23T14:26:06.535Z,3.10
2023-05-23T14:28:33.582Z,3.30
2023-05-23T14:31:01.911Z,3.67
2023-05-23T14:33:28.952Z,3.50
2023-05-23T14:35:56.221Z,3.50
2023-05-23T14:38:23.339Z,3.53
2023-05-23T14:40:50.638Z,3.13
2023-05-23T14:43:17.721Z,3.30
2023-05-23T14:45:44.937Z,3.50
2023-05-23T14:48:13.566Z,3.50
2023-05-23T14:50:40.739Z,3.20
2023-05-23T14:53:07.942Z,3.03
2023-05-23T14:55:35.060Z,2.70
2023-05-23T14:58:03.421Z,3.47
2023-05-23T15:00:30.385Z,3.13
2023-05-23T15:02:57.411Z,3.13
2023-05-23T15:05:25.912Z,3.10
2023-05-23T15:07:52.901Z,2.97
2023-05-23T15:10:19.861Z,4.03
2023-05-23T15:12:46.894Z,3.27
2023-05-23T15:15:13.960Z,3.10
2023-05-23T15:17:40.960Z,5.50
2023-05-23T15:20:10.100Z,3.33
2023-05-23T15:22:39.793Z,3.47
2023-05-23T15:25:08.803Z,2.60
2023-05-23T15:27:36.149Z,3.37
2023-05-23T15:30:04.147Z,5.87
2023-05-23T15:32:32.153Z,6.07
2023-05-23T15:34:59.120Z,4.43
2023-05-23T15:37:26.010Z,3.90
2023-05-23T15:39:54.242Z,3.40
2023-05-23T15:42:21.546Z,3.27
2023-05-23T15:44:48.496Z,3.50
2023-05-23T15:47:15.510Z,3.97
2023-05-23T15:49:42.438Z,3.50
2023-05-23T15:52:09.486Z,3.27
2023-05-23T15:54:36.464Z,3.17
2023-05-23T15:57:05.688Z,4.53
2023-05-23T15:59:32.699Z,3.40
2023-05-23T16:01:59.893Z,3.73
2023-05-23T16:04:27.014Z,3.30
2023-05-23T16:06:53.917Z,3.07
2023-05-23T16:09:21.257Z,3.53
2023-05-23T16:11:48.200Z,3.73
2023-05-23T16:14:16.575Z,3.93
2023-05-23T16:16:43.649Z,3.83
2023-05-23T16:19:10.825Z,3.73
2023-05-23T16:21:37.765Z,3.23
2023-05-23T16:24:05.789Z,2.90
2023-05-23T16:26:32.957Z,3.37
2023-05-23T16:28:59.899Z,4.47
2023-05-23T16:31:30.172Z,3.37
2023-05-23T16:33:58.517Z,3.43
2023-05-23T16:36:25.466Z,3.07
2023-05-23T16:38:54.142Z,3.30
2023-05-23T16:41:22.420Z,2.70
2023-05-23T16:43:49.576Z,3.10
2023-05-23T16:46:18.438Z,4.07
2023-05-23T16:48:48.800Z,3.67
2023-05-23T16:51:16.164Z,4.23
2023-05-23T16:53:43.100Z,4.53
2023-05-23T16:56:09.996Z,3.73
2023-05-23T16:58:38.616Z,3.57
2023-05-23T17:01:07.732Z,3.77
2023-05-23T17:03:35.035Z,3.67
2023-05-23T17:06:03.573Z,3.60
2023-05-23T17:08:30.540Z,3.00
2023-05-23T17:10:57.486Z,2.83
2023-05-23T17:13:24.423Z,3.63
2023-05-23T17:15:51.615Z,3.90
2023-05-23T17:18:18.724Z,3.27
2023-05-23T17:20:46.056Z,3.60
2023-05-23T17:23:14.422Z,3.40
2023-05-23T17:25:41.622Z,3.70
2023-05-23T17:28:08.747Z,3.37
2023-05-23T17:30:35.638Z,3.57
2023-05-23T17:33:02.744Z,3.70
2023-05-23T17:35:29.664Z,3.53
2023-05-23T17:38:00.613Z,3.40
2023-05-23T17:40:29.020Z,4.00
2023-05-23T17:42:55.969Z,4.40
2023-05-23T17:45:23.178Z,4.20
2023-05-23T17:47:50.103Z,3.83
2023-05-23T17:50:17.303Z,5.13
2023-05-23T17:52:44.785Z,4.83
2023-05-23T17:55:11.864Z,3.93
2023-05-23T17:57:40.324Z,3.80
2023-05-23T18:00:08.973Z,4.00
2023-05-23T18:02:35.920Z,3.63
2023-05-23T18:05:02.897Z,4.50
2023-05-23T18:07:29.939Z,4.40
2023-05-23T18:09:59.828Z,4.10
2023-05-23T18:12:26.975Z,3.30
2023-05-23T18:14:55.208Z,3.37
2023-05-23T18:17:22.697Z,4.63
2023-05-23T18:19:49.758Z,3.40
2023-05-23T18:22:16.832Z,3.20
2023-05-23T18:24:43.832Z,3.10
2023-05-23T18:27:11.066Z,3.20
2023-05-23T18:29:38.200Z,4.77
2023-05-23T18:32:07.128Z,3.73
2023-05-23T18:34:34.114Z,3.90
2023-05-23T18:37:02.983Z,3.90
2023-05-23T18:39:31.044Z,4.40
2023-05-23T18:41:58.691Z,3.17
2023-05-23T18:44:25.745Z,3.53
2023-05-23T18:46:52.798Z,3.57
2023-05-23T18:49:21.914Z,3.23
2023-05-23T18:51:51.582Z,3.70
2023-05-23T18:54:18.574Z,3.60
2023-05-23T18:56:45.552Z,3.07
2023-05-23T18:59:14.500Z,3.43
2023-05-23T19:01:41.446Z,3.63
2023-05-23T19:04:08.618Z,3.33
2023-05-23T19:06:37.216Z,3.07
2023-05-23T19:09:09.339Z,3.00
2023-05-23T19:11:37.232Z,3.03
2023-05-23T19:14:04.269Z,3.50
2023-05-23T19:16:31.472Z,3.43
2023-05-23T19:18:58.520Z,3.70
2023-05-23T19:21:26.565Z,3.80
2023-05-23T19:23:55.264Z,3.20
2023-05-23T19:26:22.272Z,3.90
2023-05-23T19:28:49.271Z,3.33
2023-05-23T19:31:16.318Z,4.10
2023-05-23T19:33:43.365Z,3.53
2023-05-23T19:36:10.406Z,3.20
2023-05-23T19:38:37.445Z,3.67
2023-05-23T19:41:06.252Z,4.47
2023-05-23T19:43:33.236Z,3.50
2023-05-23T19:46:00.364Z,4.43
2023-05-23T19:48:27.449Z,3.30
2023-05-23T19:50:54.480Z,3.80
2023-05-23T19:53:22.879Z,3.57
2023-05-23T19:55:49.954Z,3.60
2023-05-23T19:58:18.480Z,4.00
2023-05-23T20:00:45.473Z,3.43
2023-05-23T20:03:12.620Z,4.20
2023-05-23T20:05:39.785Z,3.60
2023-05-23T20:08:06.923Z,4.13
2023-05-23T20:10:33.959Z,3.97
2023-05-23T20:13:00.957Z,4.03
2023-05-23T20:15:39.443Z,5.53
2023-05-23T20:18:07.895Z,4.80
2023-05-23T20:20:34.952Z,4.87
2023-05-23T20:23:01.939Z,4.63
2023-05-23T20:25:29.064Z,4.93
2023-05-23T20:27:58.763Z,3.63
2023-05-23T20:30:26.249Z,4.33
2023-05-23T20:32:54.754Z,4.30
2023-05-23T20:35:22.787Z,3.77
2023-05-23T20:37:53.457Z,4.20
2023-05-23T20:40:22.105Z,4.70
2023-05-23T20:42:49.732Z,5.57
2023-05-23T20:45:16.806Z,4.60
2023-05-23T20:47:43.844Z,4.87
2023-05-23T20:50:15.853Z,5.20
2023-05-23T20:52:43.485Z,4.93
2023-05-23T20:55:10.893Z,4.70
2023-05-23T20:57:38.203Z,4.93
2023-05-23T21:00:10.858Z,4.63
2023-05-23T21:02:38.331Z,5.17
2023-05-23T21:05:06.677Z,5.30
2023-05-23T21:07:35.558Z,5.60
2023-05-23T21:10:03.331Z,5.23
2023-05-23T21:12:30.720Z,5.00
2023-05-23T21:14:57.636Z,5.40
2023-05-23T21:17:24.672Z,4.97
2023-05-23T21:19:51.790Z,4.73
2023-05-23T21:22:18.697Z,4.90
2023-05-23T21:24:46.984Z,4.40
2023-05-23T21:27:13.988Z,4.87
2023-05-23T21:29:40.879Z,5.37
2023-05-23T21:32:07.856Z,6.00
2023-05-23T21:34:34.823Z,5.80
2023-05-23T21:37:01.728Z,4.57
2023-05-23T21:39:39.217Z,5.30
2023-05-23T21:42:15.706Z,4.13
2023-05-23T21:44:42.664Z,4.37
2023-05-23T21:47:09.586Z,5.47
2023-05-23T21:49:37.831Z,4.60
2023-05-23T21:52:05.155Z,4.17
2023-05-23T21:54:32.333Z,4.13
2023-05-23T21:56:59.350Z,4.43
2023-05-23T21:59:27.637Z,4.87
2023-05-23T22:01:54.620Z,4.37
2023-05-23T22:04:21.711Z,4.53
2023-05-23T22:06:48.683Z,5.40
2023-05-23T22:09:15.678Z,4.33
2023-05-23T22:11:43.118Z,4.37
2023-05-23T22:14:10.618Z,4.40
2023-05-23T22:16:39.375Z,4.20
2023-05-23T22:19:07.109Z,5.57
2023-05-23T22:21:34.182Z,4.53
2023-05-23T22:24:01.417Z,4.00
2023-05-23T22:26:28.934Z,4.87
2023-05-23T22:28:56.047Z,4.50
2023-05-23T22:31:23.877Z,4.87
2023-05-23T22:33:52.517Z,4.97
2023-05-23T22:36:19.502Z,5.33
2023-05-23T22:38:46.482Z,4.53
2023-05-23T22:41:14.715Z,5.10
2023-05-23T22:43:41.754Z,5.43
2023-05-23T22:46:08.836Z,5.47
2023-05-23T22:48:35.763Z,5.40
2023-05-23T22:51:05.529Z,4.83
2023-05-23T22:53:32.497Z,5.07
2023-05-23T22:55:59.456Z,4.70
2023-05-23T22:58:26.756Z,5.20
2023-05-23T23:00:53.731Z,5.00
2023-05-23T23:03:20.936Z,4.57
2023-05-23T23:05:48.106Z,5.10
2023-05-23T23:08:16.562Z,5.27
2023-05-23T23:10:44.491Z,4.97
2023-05-23T23:13:13.943Z,5.80
2023-05-23T23:15:42.712Z,5.50
2023-05-23T23:18:09.873Z,5.07
2023-05-23T23:20:38.550Z,5.27
2023-05-23T23:23:05.915Z,5.50
2023-05-23T23:25:36.139Z,5.80
2023-05-23T23:28:03.145Z,5.80
2023-05-23T23:30:30.109Z,6.20
2023-05-23T23:32:57.096Z,5.67
2023-05-23T23:35:24.137Z,4.27
2023-05-23T23:37:51.111Z,5.60
2023-05-23T23:40:18.137Z,4.90
2023-05-23T23:42:46.401Z,5.00
2023-05-23T23:45:13.425Z,5.50
2023-05-23T23:47:41.504Z,5.50
2023-05-23T23:50:09.273Z,4.83
2023-05-23T23:52:38.905Z,5.40
2023-05-23T23:55:06.910Z,7.03
2023-05-23T23:57:33.871Z,5.23
